Isom, KY (41824)

2:24 PM EDT on September 18, 2014 (GMT -0400)
Lonesome Pine | Change Station
CLOSE
Current Station
Airport
Location: Wise,
Elevation: 2684 ft
Nearby Weather Stations

Elev 2684 ft 36.99 °N, 82.53 °W | Updated 9 minutes ago

Partly Cloudy
Partly Cloudy
68 °F
Feels Like 68 °F
N
5
Wind Variable Wind from NNE

Today
High -- | Low -- °F
--% Chance of Precip.
Yesterday
High -- | Low -- °F
Precip. -- in
7:16 AM 7:34 PM
Waning Crescent, 25% visible
Pressure 30.11 in
Visibility 10.0 miles
Clouds Scattered Clouds 2700 ft
Scattered Clouds 3100 ft
Overcast 8000 ft
Dew Point 50 °F
Humidity 52%
Rainfall 0.00 in
Snow Depth Not available.
UV 3 out of 12
Pollen 5.40 out of 12
Air Quality Not available.
Flu Activity Not available.
METAR KLNP 181815Z AUTO 03004KT 10SM SCT027 SCT031 OVC080 20/10 A3011 RMK AO2

More Conditions Fewer Conditions

Pressure 30.11 in
Visibility 10.0 miles
Clouds Scattered Clouds 2700 ft
Scattered Clouds 3100 ft
Overcast 8000 ft
Dew Point 50 °F
Humidity 52%
Rainfall 0.00 in
Snow Depth Not available.
UV 3 out of 12
Pollen 5.40 out of 12
Air Quality Not available.
Flu Activity Not available.
METAR KLNP 181815Z AUTO 03004KT 10SM SCT027 SCT031 OVC080 20/10 A3011 RMK AO2

More Conditions Fewer Conditions

10-Day Weather Forecast

Almanac

Astronomy

Sep. 18, 2014 Rise Set
Actual Time 7:16 AM EDT 7:34 PM EDT
Civil Twilight 6:50 AM EDT 8:00 PM EDT
Nautical Twilight 6:19 AM EDT 8:31 PM EDT
Astronomical Twilight 5:48 AM EDT 9:02 PM EDT
Moon 2:12 AM EDT 4:20 PM EDT
Length of Visible Light 13h 10m
Length of Day
12h 18m
Tomorrow will be 2m 21s shorter.
Waning Crescent, 25% of the Moon is Illuminated
Today
Waning Crescent
Sep 24
New
Oct 1
First Quarter
Oct 8
Full
Oct 15
Last Quarter

Today's Extremes

State Highs State Lows

Community

WunderPhotos

Upload Photos

1,754,414 photos uploaded!

Nearby

Snow Depth

Station Depth Elevation
No new snow has been reported.

Earthquake Activity

City Distance Mag. Time & Date
No recent earthquake activity has been reported nearby.
Minimum magnitude displayed is 2.5.

Coastal Water Temperatures

Place Temperature
No Stations Reporting

Nearby Weather Stations